Welcome to Northern Hawkes Bay. New Zealand.
PWS Header
      nz Flag



Hit Counter


W3C Valid W3C Valid logo


    Wairoa

Select any of the Stations below to visit their websites.










Historic Data from Weather Underground
Select the location of interest below. Wairoa is the default. Please have patience, this Data is slow to load in.
Northern Hawkes Bay Historical Data
Daily Summary for January 5, 2017 Units:  English    Metric   Both
« Previous Day
Next Day »
Daily Weekly Monthly Yearly Custom
  High: Low: Average:
Temperature: 66.2 °F 44.1 °F 56.7 °F
Dew Point: 48.7 °F 35.4 °F 43 °F
Humidity: 86% 38% 62%
Wind Speed: 15.2mph 0mph 5.6mph
Wind Gust: 26.6mph - -
Wind- - WSW
Pressure: 30.1 in 30 in -
Precipitation: 0 in    
Historical Graphs
 
 
Tabular Data for January 5, 2017
Time Temperature Dew Point Pressure Wind Wind Speed Wind Gust Humidity Rainfall Rate (Hourly) solar
00:02 52.7 °F 44.2 °F 30 in SW 9.2 mph 20.6 mph 73% 0 in 0 W/m2
00:07 52.5 °F 43.9 °F 30 in WSW 13 mph 22.1 mph 72% 0 in 0 W/m2
00:12 52.5 °F 44.1 °F 30 in WSW 11.4 mph 22.1 mph 73% 0 in 0 W/m2
00:17 52.5 °F 44.1 °F 30 in SW 10.7 mph 19.7 mph 73% 0 in 0 W/m2
00:22 52.5 °F 44.1 °F 30 in SW 9.2 mph 17.4 mph 73% 0 in 0 W/m2
00:27 52.3 °F 43.5 °F 30 in SW 9.8 mph 15.9 mph 72% 0 in 0 W/m2
00:32 52.3 °F 43.5 °F 30 in SW 8.3 mph 14.5 mph 72% 0 in 0 W/m2
00:37 52.3 °F 43.5 °F 30 in WSW 7.6 mph 15.2 mph 72% 0 in 0 W/m2
00:42 52.3 °F 43.5 °F 30 in WSW 3.8 mph 15.2 mph 72% 0 in 0 W/m2
00:47 52.3 °F 43.2 °F 30 in WSW 2.2 mph 15.2 mph 71% 0 in 0 W/m2
00:52 52.3 °F 43.2 °F 30 in WSW 7.6 mph 10.7 mph 71% 0 in 0 W/m2
00:57 52.3 °F 43.2 °F 30 in West 3.1 mph 10.7 mph 71% 0 in 0 W/m2
01:02 52.2 °F 42.6 °F 30 in West 3.1 mph 10.7 mph 70% 0 in 0 W/m2
01:07 52 °F 42.4 °F 30 in West 3.8 mph 8.3 mph 70% 0 in 0 W/m2
01:12 52 °F 42.4 °F 30 in West 3.1 mph 9.2 mph 70% 0 in 0 W/m2
01:17 51.8 °F 43.2 °F 30 in WNW 2.2 mph 9.2 mph 72% 0 in 0 W/m2
01:22 51.6 °F 43.5 °F 30 in NW 1.6 mph 6 mph 74% 0 in 0 W/m2
01:27 51.3 °F 43.3 °F 30 in NW 2.2 mph 6.9 mph 74% 0 in 0 W/m2
01:32 51.1 °F 42.6 °F 30 in NW 3.8 mph 6.9 mph 73% 0 in 0 W/m2
01:37 50.9 °F 42.6 °F 30 in NW 1.6 mph 6 mph 73% 0 in 0 W/m2
01:42 50.5 °F 42.3 °F 30 in NW 1.6 mph 5.4 mph 73% 0 in 0 W/m2
01:47 50.4 °F 42.1 °F 30 in NW 2.2 mph 5.4 mph 73% 0 in 0 W/m2
01:52 50.2 °F 41.9 °F 30 in WNW 2.2 mph 4.5 mph 73% 0 in 0 W/m2
01:57 50 °F 41.7 °F 30 in WNW 2.2 mph 4.5 mph 73% 0 in 0 W/m2
02:02 49.6 °F 41.7 °F 30 in WNW 2.2 mph 3.8 mph 74% 0 in 0 W/m2
02:07 49.5 °F 41.9 °F 30 in NW 1.6 mph 3.8 mph 75% 0 in 0 W/m2
02:12 49.3 °F 41.7 °F 30 in NW 1.6 mph 3.1 mph 75% 0 in 0 W/m2
02:17 49.3 °F 41.7 °F 30 in NW 1.6 mph 3.1 mph 75% 0 in 0 W/m2
02:22 48.9 °F 41.4 °F 30 in NW 2.2 mph 3.8 mph 75% 0 in 0 W/m2
02:27 48.9 °F 41.7 °F 30 in NW 1.6 mph 4.5 mph 76% 0 in 0 W/m2
02:32 48.7 °F 41.2 °F 30 in NW 1.6 mph 4.5 mph 75% 0 in 0 W/m2
02:37 48.7 °F 41.2 °F 30 in NW 1.6 mph 3.8 mph 75% 0 in 0 W/m2
02:42 48.6 °F 41 °F 30 in NW 1.6 mph 3.8 mph 75% 0 in 0 W/m2
02:47 48.2 °F 41 °F 30 in NW 1.6 mph 3.8 mph 76% 0 in 0 W/m2
02:52 48.2 °F 41.4 °F 30 in NW 2.2 mph 3.8 mph 77% 0 in 0 W/m2
02:57 48 °F 41.5 °F 30 in NW 2.2 mph 3.8 mph 78% 0 in 0 W/m2
03:02 48 °F 41.5 °F 30 in NNW 1.6 mph 3.8 mph 78% 0 in 0 W/m2
03:07 47.8 °F 41.4 °F 30 in NNW 2.2 mph 3.8 mph 78% 0 in 0 W/m2
03:12 47.8 °F 41.4 °F 30 in NNW 3.1 mph 4.5 mph 78% 0 in 0 W/m2
03:17 47.8 °F 41 °F 30 in NNW 2.2 mph 4.5 mph 77% 0 in 0 W/m2
03:22 47.8 °F 41 °F 30 in NNW 1.6 mph 6 mph 77% 0 in 0 W/m2
03:27 48 °F 40.8 °F 30 in NNW 1.6 mph 6 mph 76% 0 in 0 W/m2
03:32 47.8 °F 40.3 °F 30 in NNW 2.2 mph 4.5 mph 75% 0 in 0 W/m2
03:37 47.8 °F 40.3 °F 30 in NNW 2.2 mph 5.4 mph 75% 0 in 0 W/m2
03:42 47.7 °F 40.5 °F 30 in NNW 3.1 mph 5.4 mph 76% 0 in 0 W/m2
03:47 47.5 °F 40.3 °F 30 in NW 0.7 mph 6 mph 76% 0 in 0 W/m2
03:52 47.1 °F 39.9 °F 30 in NW 2.2 mph 6 mph 76% 0 in 0 W/m2
03:57 46.9 °F 40.1 °F 30 in NW 3.1 mph 4.5 mph 77% 0 in 0 W/m2
04:02 46.9 °F 40.1 °F 30 in NNW 1.6 mph 4.5 mph 77% 0 in 0 W/m2
04:07 46.8 °F 39.9 °F 30 in NNW 2.2 mph 4.5 mph 77% 0 in 0 W/m2
04:12 46.8 °F 39.9 °F 30 in NW 2.2 mph 4.5 mph 77% 0 in 0 W/m2
04:17 46.8 °F 39.9 °F 30 in NW 1.6 mph 4.5 mph 77% 0 in 0 W/m2
04:22 46.6 °F 39.7 °F 30 in NW 1.6 mph 3.8 mph 77% 0 in 0 W/m2
04:27 46.2 °F 39.4 °F 30 in NW 0.7 mph 3.1 mph 77% 0 in 0 W/m2
04:32 45.9 °F 39.4 °F 30 in NNW 1.6 mph 3.1 mph 78% 0 in 0 W/m2
04:37 45.7 °F 39.2 °F 30 in Calm   3.1 mph 78% 0 in 0 W/m2
04:42 45.5 °F 39.4 °F 30 in NNW 0.7 mph 3.1 mph 79% 0 in 0 W/m2
04:47 45.3 °F 39.6 °F 30 in North 0.7 mph 2.2 mph 80% 0 in 0 W/m2
04:52 45.1 °F 39.4 °F 30 in Calm   2.2 mph 80% 0 in 0 W/m2
04:57 45.1 °F 39.7 °F 30 in Calm   2.2 mph 81% 0 in 0 W/m2
05:02 45.1 °F 39.4 °F 30 in NE 0.7 mph 2.2 mph 80% 0 in 0 W/m2
05:07 45 °F 39.2 °F 30 in NNE 0.7 mph 2.2 mph 80% 0 in 0 W/m2
05:12 45.3 °F 39.7 °F 30 in NNW 1.6 mph 3.8 mph 81% 0 in 0 W/m2
05:17 45.3 °F 39.7 °F 30 in NW 1.6 mph 3.8 mph 81% 0 in 0 W/m2
05:22 45.1 °F 39.4 °F 30 in NW 1.6 mph 3.8 mph 80% 0 in 0 W/m2
05:27 45 °F 39.6 °F 30 in NW 2.2 mph 3.8 mph 81% 0 in 0 W/m2
05:32 44.8 °F 39.4 °F 30 in NW 2.2 mph 3.8 mph 81% 0 in 0 W/m2
05:37 44.6 °F 39 °F 30 in NW 2.2 mph 4.5 mph 81% 0 in 0 W/m2
05:42 44.6 °F 39.6 °F 30 in NW 3.1 mph 4.5 mph 82% 0 in 0 W/m2
05:47 44.4 °F 39.9 °F 30 in NW 2.2 mph 4.5 mph 84% 0 in 1 W/m2
05:52 44.2 °F 39.7 °F 30 in NNW 1.6 mph 4.5 mph 84% 0 in 3 W/m2
05:57 44.1 °F 39.7 °F 30 in NNW 2.2 mph 3.8 mph 85% 0 in 5 W/m2
06:02 44.1 °F 40.1 °F 30 in NNW 2.2 mph 3.8 mph 86% 0 in 8 W/m2
06:07 44.1 °F 40.1 °F 30 in NNW 1.6 mph 3.8 mph 86% 0 in 11 W/m2
06:12 44.1 °F 40.1 °F 30 in NNW 2.2 mph 3.8 mph 86% 0 in 14 W/m2
06:17 44.2 °F 40.3 °F 30 in NNW 3.1 mph 4.5 mph 86% 0 in 18 W/m2
06:22 44.4 °F 40.5 °F 30 in NNW 1.6 mph 4.5 mph 86% 0 in 21 W/m2
06:27 45 °F 40.5 °F 30 in NNW 2.2 mph 4.5 mph 84% 0 in 25 W/m2
06:33 45.5 °F 41 °F 30 in NNW 2.2 mph 4.5 mph 84% 0 in 31 W/m2
06:38 45.9 °F 41 °F 30 in NNW 0.7 mph 4.5 mph 83% 0 in 34 W/m2
06:43 46.8 °F 41.9 °F 30 in NNW 1.6 mph 3.8 mph 83% 0 in 64 W/m2
06:48 47.8 °F 42.1 °F 30 in North 2.2 mph 5.4 mph 80% 0 in 74 W/m2
06:53 48.7 °F 41.5 °F 30 in North 2.2 mph 5.4 mph 76% 0 in 85 W/m2
06:58 49.6 °F 42.1 °F 30 in North 2.2 mph 5.4 mph 75% 0 in 93 W/m2
07:03 50.5 °F 41.5 °F 30 in North 3.1 mph 5.4 mph 71% 0 in 108 W/m2
07:08 51.1 °F 41.4 °F 30 in North 1.6 mph 5.4 mph 69% 0 in 113 W/m2
07:13 51.3 °F 40.6 °F 30 in North 3.8 mph 4.5 mph 67% 0 in 131 W/m2
07:18 51.3 °F 40.3 °F 30 in NNW 3.1 mph 6.9 mph 66% 0 in 144 W/m2
07:23 51.4 °F 40.5 °F 30 in NW 3.1 mph 6.9 mph 66% 0 in 157 W/m2
07:28 52 °F 40.3 °F 30 in NNW 3.1 mph 6 mph 64% 0 in 172 W/m2
07:33 52.5 °F 41.2 °F 30 in NNW 3.1 mph 6 mph 65% 0 in 120 W/m2
07:38 52.9 °F 40.6 °F 30 in NNW 3.8 mph 6.9 mph 63% 0 in 194 W/m2
07:43 53.2 °F 41.4 °F 30 in NNW 3.8 mph 7.6 mph 64% 0 in 211 W/m2
07:48 53.6 °F 40.8 °F 30 in NNW 5.4 mph 7.6 mph 62% 0 in 228 W/m2
07:53 54.1 °F 41.4 °F 30 in NNW 2.2 mph 7.6 mph 62% 0 in 237 W/m2
07:58 54.7 °F 41.5 °F 30 in NNW 4.5 mph 7.6 mph 61% 0 in 255 W/m2
08:03 55.6 °F 41.5 °F 30 in NW 5.4 mph 7.6 mph 59% 0 in 270 W/m2
08:08 55.9 °F 41.4 °F 30 in NNW 3.1 mph 7.6 mph 58% 0 in 278 W/m2
08:13 56.7 °F 41.5 °F 30 in NW 4.5 mph 7.6 mph 57% 0 in 292 W/m2
08:18 58.1 °F 42.4 °F 30 in West 0.7 mph 6 mph 56% 0 in 319 W/m2
08:23 58.8 °F 39.2 °F 30 in West 10.7 mph 13.6 mph 48% 0 in 331 W/m2
08:28 58.5 °F 38.8 °F 30 in WSW 9.8 mph 13.6 mph 48% 0 in 339 W/m2
08:33 58.5 °F 37.8 °F 30 in SW 9.2 mph 14.5 mph 46% 0 in 357 W/m2
08:38 59 °F 38.8 °F 30 in SW 9.2 mph 14.5 mph 47% 0 in 376 W/m2
08:43 59.2 °F 38.5 °F 30 in SW 8.3 mph 14.5 mph 46% 0 in 405 W/m2
08:48 59 °F 37 °F 30 in SW 9.8 mph 15.9 mph 44% 0 in 412 W/m2
08:53 59 °F 37 °F 30 in WSW 7.6 mph 15.9 mph 44% 0 in 418 W/m2
08:58 59 °F 37 °F 30 in SW 9.2 mph 18.3 mph 44% 0 in 438 W/m2
09:03 59.4 °F 36.3 °F 30 in SW 10.7 mph 21.3 mph 42% 0 in 456 W/m2
09:08 59.5 °F 37.6 °F 30 in SW 9.8 mph 21.3 mph 44% 0 in 472 W/m2
09:13 59.5 °F 36.3 °F 30 in SW 9.8 mph 19.7 mph 42% 0 in 494 W/m2
09:18 59.7 °F 37.2 °F 30 in SSW 15.2 mph 19.7 mph 43% 0 in 505 W/m2
09:23 59.5 °F 37 °F 30 in SSW 15.2 mph 26.6 mph 43% 0 in 523 W/m2
09:28 59.7 °F 38.8 °F 30 in SSW 12.1 mph 26.6 mph 46% 0 in 561 W/m2
09:33 59.9 °F 37.9 °F 30.1 in SSW 10.7 mph 25.1 mph 44% 0 in 564 W/m2
09:38 60.1 °F 38.7 °F 30.1 in SW 8.3 mph 20.6 mph 45% 0 in 596 W/m2
09:43 60.4 °F 39 °F 30.1 in WSW 13 mph 20.6 mph 45% 0 in 616 W/m2
09:48 59.9 °F 39 °F 30.1 in West 9.8 mph 20.6 mph 46% 0 in 636 W/m2
09:53 60.1 °F 39.2 °F 30.1 in WSW 13.6 mph 19.7 mph 46% 0 in 652 W/m2
09:58 59.9 °F 37.4 °F 30.1 in SW 10.7 mph 19.7 mph 43% 0 in 660 W/m2
10:04 60.1 °F 37.6 °F 30.1 in SW 6 mph 17.4 mph 43% 0 in 682 W/m2
10:09 60.3 °F 37 °F 30.1 in SW 10.7 mph 20.6 mph 42% 0 in 697 W/m2
10:14 60.1 °F 37.6 °F 30.1 in SW 13 mph 20.6 mph 43% 0 in 710 W/m2
10:19 60.6 °F 36.9 °F 30.1 in WSW 9.8 mph 19 mph 41% 0 in 721 W/m2
10:24 60.8 °F 37 °F 30.1 in SW 8.3 mph 19 mph 41% 0 in 737 W/m2
10:29 60.8 °F 37.6 °F 30.1 in SSW 8.3 mph 18.3 mph 42% 0 in 750 W/m2
10:34 61.5 °F 35.8 °F 30.1 in SSW 9.8 mph 18.3 mph 38% 0 in 764 W/m2
10:39 61.5 °F 36.3 °F 30.1 in SW 9.2 mph 15.2 mph 39% 0 in 776 W/m2
10:44 61.2 °F 36 °F 30.1 in SSW 7.6 mph 15.2 mph 39% 0 in 784 W/m2
10:49 60.6 °F 35.4 °F 30.1 in SSW 9.2 mph 15.2 mph 39% 0 in 796 W/m2
10:54 60.8 °F 35.8 °F 30.1 in SW 6.9 mph 14.5 mph 39% 0 in 807 W/m2
10:59 61.3 °F 36.9 °F 30.1 in SSW 9.2 mph 14.5 mph 40% 0 in 822 W/m2
11:04 61.3 °F 37.6 °F 30.1 in SSW 5.4 mph 14.5 mph 41% 0 in 831 W/m2
11:09 61.5 °F 38.1 °F 30.1 in SSW 9.2 mph 14.5 mph 42% 0 in 839 W/m2
11:14 61.7 °F 38.5 °F 30.1 in SSW 8.3 mph 15.2 mph 42% 0 in 846 W/m2
11:19 62.1 °F 36.9 °F 30.1 in SW 6.9 mph 15.2 mph 39% 0 in 858 W/m2
11:24 62.1 °F 36.9 °F 30.1 in SW 7.6 mph 15.9 mph 39% 0 in 862 W/m2
11:30 61.7 °F 36 °F 30.1 in SSW 12.1 mph 17.4 mph 38% 0 in 867 W/m2
11:35 61.5 °F 36.3 °F 30.1 in SSW 11.4 mph 17.4 mph 39% 0 in 870 W/m2
11:40 62.1 °F 38.1 °F 30.1 in SSW 7.6 mph 15.2 mph 41% 0 in 876 W/m2
11:47 62.2 °F 38.8 °F 30.1 in SSW 9.2 mph 13 mph 42% 0 in 887 W/m2
12:03 62.2 °F 40.1 °F 30.1 in SSW 9.2 mph 13 mph 44% 0 in 894 W/m2
12:08 62.4 °F 39.6 °F 30.1 in SSW 8.3 mph 13 mph 43% 0 in 897 W/m2
12:14 62.2 °F 39.6 °F 30.1 in South 8.3 mph 13 mph 43% 0 in 901 W/m2
12:19 62.1 °F 39.4 °F 30.1 in South 9.2 mph 13 mph 43% 0 in 903 W/m2
12:24 62.1 °F 39.9 °F 30.1 in South 9.2 mph 13 mph 44% 0 in 904 W/m2
12:29 62.4 °F 40.3 °F 30.1 in South 7.6 mph 11.4 mph 44% 0 in 904 W/m2
12:34 62.8 °F 39.9 °F 30.1 in SSW 7.6 mph 10.7 mph 43% 0 in 908 W/m2
12:39 63 °F 40.6 °F 30.1 in SW 8.3 mph 10.7 mph 44% 0 in 908 W/m2
12:44 62.8 °F 39.4 °F 30.1 in SSW 8.3 mph 12.1 mph 42% 0 in 906 W/m2
12:49 62.8 °F 38.7 °F 30.1 in SSW 6 mph 13 mph 41% 0 in 908 W/m2
12:54 63 °F 39.6 °F 30.1 in SSW 5.4 mph 14.5 mph 42% 0 in 903 W/m2
12:59 63.3 °F 39.9 °F 30.1 in SSW 9.2 mph 14.5 mph 42% 0 in 901 W/m2
13:04 63.9 °F 40.8 °F 30.1 in South 8.3 mph 14.5 mph 43% 0 in 902 W/m2
13:10 63.3 °F 40.5 °F 30.1 in SSW 9.2 mph 13.6 mph 43% 0 in 900 W/m2
13:16 63.7 °F 41.4 °F 30.1 in SSW 6 mph 13 mph 44% 0 in 898 W/m2
13:21 64.4 °F 41.4 °F 30.1 in SSW 6 mph 14.5 mph 43% 0 in 897 W/m2
13:26 64 °F 41.7 °F 30.1 in SSW 9.2 mph 14.5 mph 44% 0 in 895 W/m2
13:31 64.6 °F 42.8 °F 30.1 in SSW 6 mph 13.6 mph 45% 0 in 890 W/m2
13:36 64.9 °F 42.4 °F 30.1 in SSW 6.9 mph 13.6 mph 44% 0 in 886 W/m2
13:41 64.8 °F 43 °F 30.1 in SSW 9.2 mph 13.6 mph 45% 0 in 884 W/m2
13:46 64.4 °F 42.1 °F 30.1 in SSW 10.7 mph 15.9 mph 44% 0 in 880 W/m2
13:51 64.9 °F 41.9 °F 30.1 in SSW 9.2 mph 15.9 mph 43% 0 in 874 W/m2
13:56 64.9 °F 39.4 °F 30.1 in SSW 9.2 mph 16.8 mph 39% 0 in 871 W/m2
14:01 65.3 °F 41.5 °F 30.1 in SSW 8.3 mph 16.8 mph 42% 0 in 913 W/m2
14:06 64.8 °F 40.5 °F 30.1 in SSW 10.7 mph 16.8 mph 41% 0 in 889 W/m2
14:11 65.1 °F 40.8 °F 30.1 in SSW 10.7 mph 16.8 mph 41% 0 in 878 W/m2
14:16 64.8 °F 39.9 °F 30.1 in SSW 7.6 mph 17.4 mph 40% 0 in 849 W/m2
14:21 65.1 °F 40.8 °F 30.1 in SSW 11.4 mph 17.4 mph 41% 0 in 851 W/m2
14:26 65.1 °F 41.5 °F 30.1 in SSW 8.3 mph 16.8 mph 42% 0 in 822 W/m2
14:31 65.7 °F 42.6 °F 30.1 in South 9.2 mph 16.8 mph 43% 0 in 828 W/m2
14:36 65.3 °F 41 °F 30.1 in South 11.4 mph 17.4 mph 41% 0 in 828 W/m2
14:41 66.2 °F 41.7 °F 30.1 in SSW 11.4 mph 17.4 mph 41% 0 in 823 W/m2
14:47 66.2 °F 41.2 °F 30.1 in SSW 8.3 mph 15.2 mph 40% 0 in 790 W/m2
14:52 66 °F 42.3 °F 30.1 in SSW 6 mph 15.2 mph 42% 0 in 738 W/m2
14:57 66.2 °F 43.7 °F 30.1 in South 13 mph 17.4 mph 44% 0 in 782 W/m2
15:02 65.5 °F 44.8 °F 30.1 in South 7.6 mph 17.4 mph 47% 0 in 785 W/m2
15:07 64.6 °F 44.4 °F 30.1 in South 9.8 mph 18.3 mph 48% 0 in 771 W/m2
15:12 64 °F 44.4 °F 30.1 in South 13.6 mph 20.6 mph 49% 0 in 757 W/m2
15:17 63.3 °F 46.9 °F 30.1 in South 9.8 mph 20.6 mph 55% 0 in 730 W/m2
15:22 63.7 °F 47.1 °F 30.1 in South 10.7 mph 20.6 mph 55% 0 in 735 W/m2
15:27 63.7 °F 47.1 °F 30.1 in South 9.2 mph 16.8 mph 55% 0 in 730 W/m2
15:32 64.2 °F 48.2 °F 30.1 in South 8.3 mph 16.8 mph 56% 0 in 663 W/m2
15:37 63.5 °F 46.6 °F 30.1 in South 14.5 mph 24.4 mph 54% 0 in 710 W/m2
15:42 63 °F 46.6 °F 30.1 in South 8.3 mph 24.4 mph 55% 0 in 694 W/m2
15:48 62.4 °F 46.6 °F 30.1 in South 11.4 mph 20.6 mph 56% 0 in 679 W/m2
15:53 62.2 °F 47.7 °F 30.1 in South 11.4 mph 20.6 mph 59% 0 in 669 W/m2
15:58 62.2 °F 46.8 °F 30.1 in South 9.8 mph 18.3 mph 57% 0 in 648 W/m2
16:03 63 °F 46.6 °F 30.1 in South 10.7 mph 19.7 mph 55% 0 in 647 W/m2
16:08 63 °F 46.9 °F 30.1 in South 10.7 mph 19.7 mph 56% 0 in 624 W/m2
16:13 63.3 °F 47.5 °F 30.1 in South 8.3 mph 15.2 mph 56% 0 in 630 W/m2
16:18 63.1 °F 46.2 °F 30.1 in South 9.8 mph 17.4 mph 54% 0 in 597 W/m2
16:23 63 °F 46 °F 30.1 in South 9.2 mph 17.4 mph 54% 0 in 595 W/m2
16:28 62.8 °F 46.4 °F 30.1 in South 9.2 mph 15.2 mph 55% 0 in 583 W/m2
16:33 63.1 °F 46.2 °F 30.1 in South 7.6 mph 15.2 mph 54% 0 in 579 W/m2
16:38 63.9 °F 46.4 °F 30.1 in South 9.8 mph 15.9 mph 53% 0 in 492 W/m2
16:43 63.7 °F 46.8 °F 30.1 in SSE 6.9 mph 15.9 mph 54% 0 in 501 W/m2
16:48 63.5 °F 45.7 °F 30.1 in South 9.8 mph 14.5 mph 52% 0 in 497 W/m2
16:53 62.8 °F 47.8 °F 30.1 in South 9.8 mph 15.2 mph 58% 0 in 504 W/m2
16:58 63 °F 48 °F 30.1 in South 11.4 mph 15.2 mph 58% 0 in 530 W/m2
17:03 63.5 °F 47.1 °F 30.1 in South 7.6 mph 15.2 mph 55% 0 in 497 W/m2
17:08 63.1 °F 47.1 °F 30.1 in South 8.3 mph 14.5 mph 56% 0 in 409 W/m2
17:13 62.6 °F 46.2 °F 30.1 in South 9.2 mph 14.5 mph 55% 0 in 445 W/m2
17:18 63 °F 46 °F 30.1 in South 9.2 mph 14.5 mph 54% 0 in 439 W/m2
17:23 62.8 °F 46.9 °F 30.1 in South 10.7 mph 15.2 mph 56% 0 in 494 W/m2
17:28 63 °F 47.5 °F 30.1 in SSW 7.6 mph 15.2 mph 57% 0 in 226 W/m2
17:33 63 °F 47.5 °F 30.1 in SSW 9.8 mph 15.2 mph 57% 0 in 166 W/m2
17:38 61.9 °F 46.9 °F 30.1 in SSW 6.9 mph 14.5 mph 58% 0 in 380 W/m2
17:43 62.4 °F 46.9 °F 30.1 in SSW 6.9 mph 15.2 mph 57% 0 in 394 W/m2
17:48 62.2 °F 46.8 °F 30.1 in South 12.1 mph 15.9 mph 57% 0 in 174 W/m2
17:53 61.3 °F 47.3 °F 30.1 in South 6.9 mph 15.9 mph 60% 0 in 320 W/m2
17:58 61.5 °F 47.5 °F 30.1 in South 6 mph 15.2 mph 60% 0 in 198 W/m2
18:03 61.2 °F 47.1 °F 30.1 in South 9.2 mph 13.6 mph 60% 0 in 160 W/m2
18:08 60.4 °F 47.8 °F 30.1 in SSE 6.9 mph 13.6 mph 63% 0 in 146 W/m2
18:13 60.3 °F 47.7 °F 30.1 in South 9.8 mph 13.6 mph 63% 0 in 142 W/m2
18:18 59.7 °F 47.1 °F 30.1 in South 6.9 mph 15.9 mph 63% 0 in 112 W/m2
18:23 59.7 °F 47.5 °F 30.1 in South 9.2 mph 15.9 mph 64% 0 in 87 W/m2
18:28 59.4 °F 47.7 °F 30.1 in South 7.6 mph 11.4 mph 65% 0 in 134 W/m2
18:33 59.5 °F 47.8 °F 30.1 in South 6 mph 13 mph 65% 0 in 111 W/m2
18:38 59.5 °F 47.5 °F 30.1 in South 6 mph 13 mph 64% 0 in 96 W/m2
18:43 59.4 °F 48 °F 30.1 in South 7.6 mph 11.4 mph 66% 0 in 104 W/m2
18:48 59.4 °F 48.7 °F 30.1 in SSE 6.9 mph 11.4 mph 68% 0 in 96 W/m2
18:53 59.4 °F 48.4 °F 30.1 in SSE 8.3 mph 10.7 mph 67% 0 in 93 W/m2
18:58 59.4 °F 48.4 °F 30.1 in South 7.6 mph 11.4 mph 67% 0 in 77 W/m2
19:03 59.4 °F 47.7 °F 30.1 in South 8.3 mph 12.1 mph 65% 0 in 66 W/m2
19:08 59.4 °F 47.7 °F 30.1 in South 3.8 mph 12.1 mph 65% 0 in 59 W/m2
19:13 59.4 °F 47.1 °F 30.1 in South 8.3 mph 12.1 mph 64% 0 in 55 W/m2
19:18 59.4 °F 47.7 °F 30.1 in South 6.9 mph 9.8 mph 65% 0 in 58 W/m2
19:23 59.4 °F 47.7 °F 30.1 in South 6 mph 9.8 mph 65% 0 in 50 W/m2
19:28 59.2 °F 47.5 °F 30.1 in South 6.9 mph 13 mph 65% 0 in 48 W/m2
19:33 59.2 °F 47.5 °F 30.1 in South 6 mph 13 mph 65% 0 in 46 W/m2
19:38 59 °F 47.3 °F 30.1 in South 7.6 mph 12.1 mph 65% 0 in 42 W/m2
19:43 59.2 °F 47.8 °F 30.1 in South 7.6 mph 12.1 mph 66% 0 in 36 W/m2
19:48 59.2 °F 47.5 °F 30.1 in South 4.5 mph 9.8 mph 65% 0 in 39 W/m2
19:53 59 °F 46.9 °F 30.1 in SSW 6.9 mph 9.8 mph 64% 0 in 29 W/m2
19:58 59 °F 47.3 °F 30.1 in South 3.8 mph 9.2 mph 65% 0 in 24 W/m2
20:03 58.8 °F 47.5 °F 30.1 in South 3.1 mph 9.8 mph 66% 0 in 20 W/m2
20:08 58.8 °F 47.8 °F 30.1 in South 2.2 mph 9.8 mph 67% 0 in 16 W/m2
20:13 59 °F 47.3 °F 30.1 in SSW 5.4 mph 7.6 mph 65% 0 in 11 W/m2
20:18 58.8 °F 47.8 °F 30.1 in South 3.1 mph 7.6 mph 67% 0 in 9 W/m2
20:24 58.8 °F 47.8 °F 30.1 in South 4.5 mph 9.2 mph 67% 0 in 5 W/m2
20:29 58.8 °F 47.5 °F 30.1 in South 3.8 mph 9.2 mph 66% 0 in 4 W/m2
20:34 58.8 °F 47.1 °F 30.1 in SSW 4.5 mph 7.6 mph 65% 0 in 2 W/m2
20:39 58.8 °F 47.5 °F 30.1 in SSW 2.2 mph 6.9 mph 66% 0 in 1 W/m2
20:44 58.8 °F 47.1 °F 30.1 in South 3.8 mph 6.9 mph 65% 0 in 0 W/m2
20:49 58.6 °F 46.9 °F 30.1 in South 3.1 mph 6.9 mph 65% 0 in 0 W/m2
20:54 58.6 °F 47.3 °F 30.1 in South 3.8 mph 6.9 mph 66% 0 in 0 W/m2
20:59 58.6 °F 47.7 °F 30.1 in South 5.4 mph 9.2 mph 67% 0 in 0 W/m2
21:04 58.5 °F 47.7 °F 30.1 in South 4.5 mph 9.2 mph 67% 0 in 0 W/m2
21:09 58.5 °F 47.7 °F 30.1 in South 3.1 mph 8.3 mph 67% 0 in 0 W/m2
21:14 58.3 °F 47.5 °F 30.1 in South 4.5 mph 8.3 mph 67% 0 in 0 W/m2
21:19 58.3 °F 47.8 °F 30.1 in South 2.2 mph 8.3 mph 68% 0 in 0 W/m2
21:24 58.3 °F 47.8 °F 30.1 in South 3.1 mph 9.2 mph 68% 0 in 0 W/m2
21:29 58.3 °F 47.8 °F 30.1 in South 2.2 mph 9.2 mph 68% 0 in 0 W/m2
21:34 58.3 °F 47.5 °F 30.1 in South 3.8 mph 9.2 mph 67% 0 in 0 W/m2
21:39 58.3 °F 47.5 °F 30.1 in South 3.1 mph 6 mph 67% 0 in 0 W/m2
21:44 58.3 °F 47.5 °F 30.1 in South 3.1 mph 6 mph 67% 0 in 0 W/m2
21:49 58.3 °F 47.5 °F 30.1 in South 3.1 mph 5.4 mph 67% 0 in 0 W/m2
21:54 58.3 °F 47.5 °F 30.1 in South 1.6 mph 5.4 mph 67% 0 in 0 W/m2
21:59 58.3 °F 47.8 °F 30.1 in SSE 1.6 mph 5.4 mph 68% 0 in 0 W/m2
22:02 58.3 °F 47.5 °F 30.1 in SSE 2.2 mph 3.8 mph 67% 0 in 0 W/m2
22:07 58.3 °F 47.5 °F 30.1 in Calm   3.8 mph 67% 0 in 0 W/m2
22:12 58.3 °F 46.9 °F 30.1 in SSE 0.7 mph 3.8 mph 66% 0 in 0 W/m2
22:18 58.3 °F 47.5 °F 30.1 in Calm   3.1 mph 67% 0 in 0 W/m2
22:23 58.3 °F 47.5 °F 30.1 in Calm   1.6 mph 67% 0 in 0 W/m2
22:28 58.3 °F 47.5 °F 30.1 in Calm     67% 0 in 0 W/m2
22:33 58.1 °F 47.7 °F 30.1 in Calm   0.7 mph 68% 0 in 0 W/m2
22:38 58.1 °F 47.7 °F 30.1 in Calm   0.7 mph 68% 0 in 0 W/m2
22:43 57.9 °F 46.9 °F 30.1 in Calm     67% 0 in 0 W/m2
22:48 57.7 °F 47.3 °F 30.1 in Calm     68% 0 in 0 W/m2
22:53 57.7 °F 47.3 °F 30.1 in Calm     68% 0 in 0 W/m2
22:58 57.6 °F 47.1 °F 30.1 in Calm     68% 0 in 0 W/m2
23:03 57.4 °F 46.9 °F 30.1 in Calm     68% 0 in 0 W/m2
23:08 57.2 °F 46.8 °F 30.1 in Calm   1.6 mph 68% 0 in 0 W/m2
23:13 57.4 °F 47.3 °F 30.1 in Calm   1.6 mph 69% 0 in 0 W/m2
23:18 57.2 °F 47.5 °F 30.1 in Calm   0.7 mph 70% 0 in 0 W/m2
23:23 57 °F 48 °F 30.1 in Calm   0.7 mph 72% 0 in 0 W/m2
23:28 56.7 °F 48 °F 30.1 in Calm   0.7 mph 73% 0 in 0 W/m2
23:33 56.5 °F 48.4 °F 30.1 in Calm   1.6 mph 74% 0 in 0 W/m2
23:38 56.1 °F 48.4 °F 30.1 in Calm   1.6 mph 75% 0 in 0 W/m2
23:43 55.9 °F 48 °F 30.1 in Calm   0.7 mph 75% 0 in 0 W/m2
23:48 55.6 °F 48 °F 30.1 in NNW 0.7 mph 1.6 mph 76% 0 in 0 W/m2
23:53 55.4 °F 48 °F 30.1 in NW 1.6 mph 3.8 mph 76% 0 in 0 W/m2
23:58 54.9 °F 47.8 °F 30.1 in NW 1.6 mph 3.8 mph 77% 0 in 0 W/m2
Northern Hawkes Bay. New Zealand Historic Data
Compliments of Weather Underground - 2.25 mb